PWSweather.com
Personal Weather Stations
Station Observations

ChardChardGB

Lat: 50.877408, Lon: -2.94964741

Elevation: 341

Station Type: WS3083

http://www.merriott-astro.co.uk/weather/index.htm

High Low Average
Temperature 133.9°F56.6°C 45.5°F7.5°C 82.2°F27.9°C
Dew Point 59.1°F15.1°C 40.0°F4.4°C 45.4°F7.4°C
Winds 5.4 mph 8.7 kmh Calm Calm 1.0 mph E1.6 kmh E
Wind Gusts 9.2 mph14.8 kmh -- 2.0 mph3.2 kmh
Humidity 82% 10% 47%
Pressure 29.78 in1008.5 mb 29.73 in1006.8 mb -
Precipitation 0.02 in0.5 mm - -
Hour Temp Dew Point Humidity Winds Wind Gusts Pressure Precip Precip Rate Daily Precip Total
12:00 AM 121.1°F49.5°C 49.6°F9.8°C 10% Calm Calm -- 29.78 in1008.5 mb 0.00 in0.0 mm 0.00 in0.0 mm 0.00 in0.0 mm
12:10 AM 121.1°F49.5°C 49.6°F9.8°C 10% Calm Calm -- 29.78 in1008.5 mb 0.00 in0.0 mm 0.00 in0.0 mm 0.00 in0.0 mm
12:20 AM 121.1°F49.5°C 49.6°F9.8°C 10% Calm Calm -- 29.78 in1008.5 mb 0.00 in0.0 mm 0.00 in0.0 mm 0.00 in0.0 mm
12:30 AM 121.1°F49.5°C 49.6°F9.8°C 10% Calm Calm -- 29.78 in1008.5 mb 0.00 in0.0 mm 0.00 in0.0 mm 0.00 in0.0 mm
12:40 AM 121.1°F49.5°C 49.6°F9.8°C 10% Calm Calm -- 29.78 in1008.5 mb 0.00 in0.0 mm 0.00 in0.0 mm 0.00 in0.0 mm
12:50 AM 121.1°F49.5°C 49.6°F9.8°C 10% Calm Calm -- 29.78 in1008.5 mb 0.00 in0.0 mm 0.00 in0.0 mm 0.00 in0.0 mm
01:00 AM 121.1°F49.5°C 49.6°F9.8°C 10% Calm Calm -- 29.78 in1008.5 mb 0.00 in0.0 mm 0.00 in0.0 mm 0.00 in0.0 mm
01:10 AM 121.1°F49.5°C 49.6°F9.8°C 10% Calm Calm -- 29.78 in1008.5 mb 0.00 in0.0 mm 0.00 in0.0 mm 0.00 in0.0 mm
01:20 AM 121.1°F49.5°C 49.6°F9.8°C 10% Calm Calm -- 29.78 in1008.5 mb 0.00 in0.0 mm 0.00 in0.0 mm 0.00 in0.0 mm
01:30 AM 121.1°F49.5°C 49.6°F9.8°C 10% Calm Calm -- 29.78 in1008.5 mb 0.00 in0.0 mm 0.00 in0.0 mm 0.00 in0.0 mm
01:40 AM 121.1°F49.5°C 49.6°F9.8°C 10% Calm Calm -- 29.78 in1008.5 mb 0.00 in0.0 mm 0.00 in0.0 mm 0.00 in0.0 mm
01:50 AM 121.1°F49.5°C 49.6°F9.8°C 10% Calm Calm -- 29.78 in1008.5 mb 0.00 in0.0 mm 0.00 in0.0 mm 0.00 in0.0 mm
02:00 AM 121.1°F49.5°C 49.6°F9.8°C 10% Calm Calm -- 29.78 in1008.5 mb 0.00 in0.0 mm 0.00 in0.0 mm 0.00 in0.0 mm
02:10 AM 121.1°F49.5°C 49.6°F9.8°C 10% Calm Calm -- 29.77 in1008.1 mb 0.00 in0.0 mm 0.00 in0.0 mm 0.00 in0.0 mm
02:20 AM 121.1°F49.5°C 49.6°F9.8°C 10% Calm Calm -- 29.77 in1008.1 mb 0.00 in0.0 mm 0.00 in0.0 mm 0.00 in0.0 mm
02:30 AM 121.1°F49.5°C 49.6°F9.8°C 10% Calm Calm -- 29.76 in1007.8 mb 0.00 in0.0 mm 0.00 in0.0 mm 0.00 in0.0 mm
02:40 AM 121.1°F49.5°C 49.6°F9.8°C 10% Calm Calm -- 29.75 in1007.5 mb 0.00 in0.0 mm 0.00 in0.0 mm 0.00 in0.0 mm
02:50 AM 121.1°F49.5°C 49.6°F9.8°C 10% Calm Calm -- 29.75 in1007.5 mb 0.00 in0.0 mm 0.00 in0.0 mm 0.00 in0.0 mm
03:00 AM 121.1°F49.5°C 49.6°F9.8°C 10% Calm Calm -- 29.76 in1007.8 mb 0.00 in0.0 mm 0.00 in0.0 mm 0.00 in0.0 mm
03:10 AM 121.1°F49.5°C 49.6°F9.8°C 10% Calm Calm -- 29.75 in1007.5 mb 0.00 in0.0 mm 0.00 in0.0 mm 0.00 in0.0 mm
03:20 AM 121.1°F49.5°C 49.6°F9.8°C 10% Calm Calm -- 29.75 in1007.5 mb 0.00 in0.0 mm 0.00 in0.0 mm 0.00 in0.0 mm
03:30 AM 121.1°F49.5°C 49.6°F9.8°C 10% Calm Calm -- 29.75 in1007.5 mb 0.00 in0.0 mm 0.00 in0.0 mm 0.00 in0.0 mm
03:40 AM 121.1°F49.5°C 49.6°F9.8°C 10% Calm Calm -- 29.74 in1007.1 mb 0.00 in0.0 mm 0.00 in0.0 mm 0.00 in0.0 mm
03:50 AM 121.1°F49.5°C 49.6°F9.8°C 10% Calm Calm -- 29.74 in1007.1 mb 0.00 in0.0 mm 0.00 in0.0 mm 0.00 in0.0 mm
04:00 AM 121.1°F49.5°C 49.6°F9.8°C 10% Calm Calm -- 29.74 in1007.1 mb 0.00 in0.0 mm 0.00 in0.0 mm 0.00 in0.0 mm
04:10 AM 121.1°F49.5°C 49.6°F9.8°C 10% Calm Calm -- 29.74 in1007.1 mb 0.00 in0.0 mm 0.00 in0.0 mm 0.00 in0.0 mm
04:20 AM 121.1°F49.5°C 49.6°F9.8°C 10% Calm Calm -- 29.74 in1007.1 mb 0.00 in0.0 mm 0.00 in0.0 mm 0.00 in0.0 mm
04:30 AM 121.1°F49.5°C 49.6°F9.8°C 10% Calm Calm -- 29.74 in1007.1 mb 0.00 in0.0 mm 0.00 in0.0 mm 0.00 in0.0 mm
04:40 AM 121.1°F49.5°C 49.6°F9.8°C 10% Calm Calm -- 29.74 in1007.1 mb 0.00 in0.0 mm 0.00 in0.0 mm 0.00 in0.0 mm
04:50 AM 121.1°F49.5°C 49.6°F9.8°C 10% Calm Calm -- 29.73 in1006.8 mb 0.00 in0.0 mm 0.00 in0.0 mm 0.00 in0.0 mm
05:00 AM 121.1°F49.5°C 49.6°F9.8°C 10% Calm Calm -- 29.73 in1006.8 mb 0.00 in0.0 mm 0.00 in0.0 mm 0.00 in0.0 mm
05:10 AM 121.1°F49.5°C 49.6°F9.8°C 10% Calm Calm -- 29.74 in1007.1 mb 0.00 in0.0 mm 0.00 in0.0 mm 0.00 in0.0 mm
05:20 AM 121.1°F49.5°C 49.6°F9.8°C 10% Calm Calm -- 29.74 in1007.1 mb 0.00 in0.0 mm 0.00 in0.0 mm 0.00 in0.0 mm
05:30 AM 121.1°F49.5°C 49.6°F9.8°C 10% Calm Calm -- 29.74 in1007.1 mb 0.00 in0.0 mm 0.00 in0.0 mm 0.00 in0.0 mm
05:40 AM 121.1°F49.5°C 49.6°F9.8°C 10% Calm Calm -- 29.74 in1007.1 mb 0.00 in0.0 mm 0.00 in0.0 mm 0.00 in0.0 mm
05:50 AM 121.1°F49.5°C 49.6°F9.8°C 10% Calm Calm -- 29.74 in1007.1 mb 0.00 in0.0 mm 0.00 in0.0 mm 0.00 in0.0 mm
06:00 AM 121.1°F49.5°C 49.6°F9.8°C 10% Calm Calm -- 29.74 in1007.1 mb 0.00 in0.0 mm 0.00 in0.0 mm 0.00 in0.0 mm
06:10 AM 121.1°F49.5°C 49.6°F9.8°C 10% Calm Calm -- 29.73 in1006.8 mb 0.00 in0.0 mm 0.00 in0.0 mm 0.00 in0.0 mm
06:20 AM 121.1°F49.5°C 49.6°F9.8°C 10% Calm Calm -- 29.74 in1007.1 mb 0.00 in0.0 mm 0.00 in0.0 mm 0.00 in0.0 mm
06:30 AM 121.1°F49.5°C 49.6°F9.8°C 10% Calm Calm -- 29.74 in1007.1 mb 0.00 in0.0 mm 0.00 in0.0 mm 0.00 in0.0 mm
06:40 AM 121.1°F49.5°C 49.6°F9.8°C 10% Calm Calm -- 29.73 in1006.8 mb 0.00 in0.0 mm 0.00 in0.0 mm 0.00 in0.0 mm
06:50 AM 121.1°F49.5°C 49.6°F9.8°C 10% Calm Calm -- 29.73 in1006.8 mb 0.00 in0.0 mm 0.00 in0.0 mm 0.00 in0.0 mm
07:00 AM 121.1°F49.5°C 49.6°F9.8°C 10% Calm Calm -- 29.73 in1006.8 mb 0.00 in0.0 mm 0.00 in0.0 mm 0.00 in0.0 mm
07:10 AM 121.1°F49.5°C 49.6°F9.8°C 10% Calm Calm -- 29.74 in1007.1 mb 0.00 in0.0 mm 0.00 in0.0 mm 0.00 in0.0 mm
07:20 AM 121.1°F49.5°C 49.6°F9.8°C 10% Calm Calm -- 29.73 in1006.8 mb 0.00 in0.0 mm 0.00 in0.0 mm 0.00 in0.0 mm
07:30 AM 121.1°F49.5°C 49.6°F9.8°C 10% Calm Calm -- 29.73 in1006.8 mb 0.00 in0.0 mm 0.00 in0.0 mm 0.00 in0.0 mm
07:40 AM 121.1°F49.5°C 49.6°F9.8°C 10% Calm Calm -- 29.74 in1007.1 mb 0.00 in0.0 mm 0.00 in0.0 mm 0.00 in0.0 mm
07:50 AM 121.1°F49.5°C 49.6°F9.8°C 10% Calm Calm -- 29.74 in1007.1 mb 0.00 in0.0 mm 0.00 in0.0 mm 0.00 in0.0 mm
08:00 AM 121.1°F49.5°C 49.6°F9.8°C 10% Calm Calm -- 29.74 in1007.1 mb 0.00 in0.0 mm 0.00 in0.0 mm 0.00 in0.0 mm
08:10 AM 121.1°F49.5°C 49.6°F9.8°C 10% Calm Calm -- 29.73 in1006.8 mb 0.00 in0.0 mm 0.00 in0.0 mm 0.00 in0.0 mm
08:20 AM 121.1°F49.5°C 49.6°F9.8°C 10% Calm Calm -- 29.74 in1007.1 mb 0.00 in0.0 mm 0.00 in0.0 mm 0.00 in0.0 mm
08:30 AM 121.1°F49.5°C 49.6°F9.8°C 10% Calm Calm -- 29.74 in1007.1 mb 0.00 in0.0 mm 0.00 in0.0 mm 0.00 in0.0 mm
08:40 AM 121.1°F49.5°C 49.6°F9.8°C 10% Calm Calm -- 29.74 in1007.1 mb 0.00 in0.0 mm 0.00 in0.0 mm 0.00 in0.0 mm
08:50 AM 121.1°F49.5°C 49.6°F9.8°C 10% Calm Calm -- 29.75 in1007.5 mb 0.00 in0.0 mm 0.00 in0.0 mm 0.00 in0.0 mm
09:00 AM 121.1°F49.5°C 49.6°F9.8°C 10% Calm Calm -- 29.75 in1007.5 mb 0.00 in0.0 mm 0.00 in0.0 mm 0.00 in0.0 mm
09:10 AM 121.1°F49.5°C 49.6°F9.8°C 10% Calm Calm -- 29.75 in1007.5 mb 0.00 in0.0 mm 0.00 in0.0 mm 0.00 in0.0 mm
09:20 AM 121.1°F49.5°C 49.6°F9.8°C 10% Calm Calm -- 29.75 in1007.5 mb 0.00 in0.0 mm 0.00 in0.0 mm 0.00 in0.0 mm
09:30 AM 121.1°F49.5°C 49.6°F9.8°C 10% Calm Calm -- 29.75 in1007.5 mb 0.00 in0.0 mm 0.00 in0.0 mm 0.00 in0.0 mm
09:40 AM 121.1°F49.5°C 49.6°F9.8°C 10% Calm Calm -- 29.73 in1006.8 mb 0.00 in0.0 mm 0.00 in0.0 mm 0.00 in0.0 mm
09:50 AM 121.1°F49.5°C 49.6°F9.8°C 10% Calm Calm -- 29.74 in1007.1 mb 0.00 in0.0 mm 0.00 in0.0 mm 0.00 in0.0 mm
10:00 AM 121.1°F49.5°C 49.6°F9.8°C 10% Calm Calm -- 29.74 in1007.1 mb 0.00 in0.0 mm 0.00 in0.0 mm 0.00 in0.0 mm
10:10 AM 121.1°F49.5°C 49.6°F9.8°C 10% Calm Calm -- 29.73 in1006.8 mb 0.00 in0.0 mm 0.00 in0.0 mm 0.00 in0.0 mm
10:20 AM 121.1°F49.5°C 49.6°F9.8°C 10% Calm Calm -- 29.74 in1007.1 mb 0.00 in0.0 mm 0.00 in0.0 mm 0.00 in0.0 mm
10:30 AM 121.1°F49.5°C 49.6°F9.8°C 10% Calm Calm -- 29.74 in1007.1 mb 0.00 in0.0 mm 0.00 in0.0 mm 0.00 in0.0 mm
10:40 AM 121.1°F49.5°C 49.6°F9.8°C 10% Calm Calm -- 29.74 in1007.1 mb 0.00 in0.0 mm 0.00 in0.0 mm 0.00 in0.0 mm
10:50 AM 121.1°F49.5°C 49.6°F9.8°C 10% Calm Calm -- 29.74 in1007.1 mb 0.00 in0.0 mm 0.00 in0.0 mm 0.00 in0.0 mm
11:00 AM 133.9°F56.6°C 59.1°F15.1°C 10% Calm Calm -- 29.75 in1007.5 mb 0.00 in0.0 mm 0.00 in0.0 mm 0.00 in0.0 mm
11:10 AM 47.3°F8.5°C 42.1°F5.6°C 82% 3.4 mph SSE5.5 kmh SSE 5.4 mph8.7 kmh 29.75 in1007.5 mb 0.00 in0.0 mm 0.00 in0.0 mm 0.00 in0.0 mm
11:20 AM 47.3°F8.5°C 42.1°F5.6°C 82% 4.1 mph SSE6.6 kmh SSE 9.2 mph14.8 kmh 29.74 in1007.1 mb 0.00 in0.0 mm 0.00 in0.0 mm 0.00 in0.0 mm
11:30 AM 47.3°F8.5°C 42.1°F5.6°C 82% 5.2 mph S8.4 kmh S 9.2 mph14.8 kmh 29.74 in1007.1 mb 0.00 in0.0 mm 0.00 in0.0 mm 0.00 in0.0 mm
11:40 AM 47.5°F8.6°C 42.3°F5.7°C 82% 2.0 mph SSE3.2 kmh SSE 7.6 mph12.2 kmh 29.75 in1007.5 mb 0.00 in0.0 mm 0.00 in0.0 mm 0.00 in0.0 mm
11:50 AM 47.5°F8.6°C 42.3°F5.7°C 82% 3.1 mph SSE5.0 kmh SSE 6.0 mph9.7 kmh 29.75 in1007.5 mb 0.00 in0.0 mm 0.00 in0.0 mm 0.00 in0.0 mm
12:00 PM 47.5°F8.6°C 42.3°F5.7°C 82% 2.9 mph SSE4.7 kmh SSE 6.0 mph9.7 kmh 29.75 in1007.5 mb 0.00 in0.0 mm 0.00 in0.0 mm 0.00 in0.0 mm
12:10 PM 47.5°F8.6°C 42.3°F5.7°C 82% 3.6 mph S5.8 kmh S 5.4 mph8.7 kmh 29.75 in1007.5 mb 0.00 in0.0 mm 0.00 in0.0 mm 0.00 in0.0 mm
12:20 PM 47.3°F8.5°C 42.1°F5.6°C 82% 3.5 mph SSE5.6 kmh SSE 6.9 mph11.1 kmh 29.74 in1007.1 mb 0.00 in0.0 mm 0.00 in0.0 mm 0.00 in0.0 mm
12:30 PM 47.3°F8.5°C 42.1°F5.6°C 82% 2.4 mph SSE3.9 kmh SSE 5.4 mph8.7 kmh 29.75 in1007.5 mb 0.00 in0.0 mm 0.00 in0.0 mm 0.00 in0.0 mm
12:40 PM 47.3°F8.5°C 42.1°F5.6°C 82% 3.6 mph SSE5.8 kmh SSE 6.0 mph9.7 kmh 29.74 in1007.1 mb 0.01 in0.3 mm 0.06 in1.5 mm 0.01 in0.3 mm
12:50 PM 47.1°F8.4°C 41.9°F5.5°C 82% 3.0 mph SW4.8 kmh SW 4.5 mph7.2 kmh 29.75 in1007.5 mb 0.01 in0.3 mm 0.00 in0.0 mm 0.01 in0.3 mm
01:00 PM 47.3°F8.5°C 42.1°F5.6°C 82% 3.8 mph SSE6.1 kmh SSE 6.9 mph11.1 kmh 29.74 in1007.1 mb 0.01 in0.3 mm 0.00 in0.0 mm 0.01 in0.3 mm
01:10 PM 47.7°F8.7°C 42.4°F5.8°C 82% 3.0 mph SE4.8 kmh SE 6.9 mph11.1 kmh 29.74 in1007.1 mb 0.01 in0.3 mm 0.00 in0.0 mm 0.01 in0.3 mm
01:20 PM 48.2°F9.0°C 43.0°F6.1°C 82% 2.8 mph S4.5 kmh S 5.4 mph8.7 kmh 29.74 in1007.1 mb 0.01 in0.3 mm 0.00 in0.0 mm 0.01 in0.3 mm
01:30 PM 48.2°F9.0°C 43.0°F6.1°C 82% 1.0 mph SSE1.6 kmh SSE 3.1 mph5.0 kmh 29.74 in1007.1 mb 0.01 in0.3 mm 0.00 in0.0 mm 0.01 in0.3 mm
01:40 PM 48.0°F8.9°C 42.8°F6.0°C 82% 2.4 mph SSW3.9 kmh SSW 5.4 mph8.7 kmh 29.74 in1007.1 mb 0.00 in0.0 mm 0.00 in0.0 mm 0.01 in0.3 mm
01:50 PM 48.0°F8.9°C 42.8°F6.0°C 82% 0.7 mph SSW1.1 kmh SSW 2.2 mph3.5 kmh 29.74 in1007.1 mb 0.00 in0.0 mm 0.00 in0.0 mm 0.01 in0.3 mm
02:00 PM 48.0°F8.9°C 42.8°F6.0°C 82% 2.9 mph S4.7 kmh S 5.4 mph8.7 kmh 29.73 in1006.8 mb 0.00 in0.0 mm 0.00 in0.0 mm 0.01 in0.3 mm
02:10 PM 48.2°F9.0°C 43.0°F6.1°C 82% 2.2 mph S3.5 kmh S 3.8 mph6.1 kmh 29.74 in1007.1 mb 0.00 in0.0 mm 0.00 in0.0 mm 0.01 in0.3 mm
02:20 PM 48.0°F8.9°C 42.5°F5.8°C 81% 2.7 mph S4.3 kmh S 3.8 mph6.1 kmh 29.74 in1007.1 mb 0.00 in0.0 mm 0.00 in0.0 mm 0.01 in0.3 mm
02:30 PM 48.2°F9.0°C 42.6°F5.9°C 81% 1.7 mph S2.7 kmh S 6.9 mph11.1 kmh 29.74 in1007.1 mb 0.00 in0.0 mm 0.00 in0.0 mm 0.01 in0.3 mm
02:40 PM 48.2°F9.0°C 42.6°F5.9°C 81% 1.7 mph S2.7 kmh S 5.4 mph8.7 kmh 29.73 in1006.8 mb 0.00 in0.0 mm 0.00 in0.0 mm 0.01 in0.3 mm
02:50 PM 48.6°F9.2°C 43.0°F6.1°C 81% 1.9 mph S3.1 kmh S 3.8 mph6.1 kmh 29.73 in1006.8 mb 0.00 in0.0 mm 0.00 in0.0 mm 0.01 in0.3 mm
03:00 PM 49.1°F9.5°C 43.8°F6.6°C 82% 2.5 mph SSE4.0 kmh SSE 4.5 mph7.2 kmh 29.73 in1006.8 mb 0.00 in0.0 mm 0.00 in0.0 mm 0.01 in0.3 mm
03:10 PM 49.1°F9.5°C 43.5°F6.4°C 81% 3.7 mph SSW6.0 kmh SSW 4.5 mph7.2 kmh 29.73 in1006.8 mb 0.00 in0.0 mm 0.00 in0.0 mm 0.01 in0.3 mm
03:20 PM 48.9°F9.4°C 43.4°F6.3°C 81% 4.3 mph S6.9 kmh S 7.6 mph12.2 kmh 29.74 in1007.1 mb 0.00 in0.0 mm 0.00 in0.0 mm 0.01 in0.3 mm
03:30 PM 48.7°F9.3°C 42.9°F6.1°C 80% 5.4 mph SW8.7 kmh SW 7.6 mph12.2 kmh 29.73 in1006.8 mb 0.00 in0.0 mm 0.00 in0.0 mm 0.01 in0.3 mm
03:40 PM 48.7°F9.3°C 42.9°F6.1°C 80% 5.4 mph SSW8.7 kmh SSW 6.0 mph9.7 kmh 29.74 in1007.1 mb 0.00 in0.0 mm 0.00 in0.0 mm 0.01 in0.3 mm
03:50 PM 48.7°F9.3°C 42.9°F6.1°C 80% 4.6 mph S7.4 kmh S 6.0 mph9.7 kmh 29.73 in1006.8 mb 0.00 in0.0 mm 0.00 in0.0 mm 0.01 in0.3 mm
04:00 PM 48.7°F9.3°C 42.9°F6.1°C 80% 3.9 mph SW6.3 kmh SW 9.2 mph14.8 kmh 29.73 in1006.8 mb 0.00 in0.0 mm 0.00 in0.0 mm 0.01 in0.3 mm
04:10 PM 48.6°F9.2°C 42.7°F5.9°C 80% 4.1 mph S6.6 kmh S 7.6 mph12.2 kmh 29.73 in1006.8 mb 0.00 in0.0 mm 0.00 in0.0 mm 0.01 in0.3 mm
04:20 PM 48.2°F9.0°C 42.3°F5.7°C 80% 4.0 mph S6.4 kmh S 7.6 mph12.2 kmh 29.74 in1007.1 mb 0.00 in0.0 mm 0.00 in0.0 mm 0.01 in0.3 mm
04:30 PM 48.0°F8.9°C 42.2°F5.7°C 80% 3.8 mph S6.1 kmh S 5.4 mph8.7 kmh 29.74 in1007.1 mb 0.00 in0.0 mm 0.00 in0.0 mm 0.01 in0.3 mm
04:40 PM 47.8°F8.8°C 42.0°F5.6°C 80% 3.1 mph SW5.0 kmh SW 6.0 mph9.7 kmh 29.74 in1007.1 mb 0.00 in0.0 mm 0.00 in0.0 mm 0.01 in0.3 mm
04:50 PM 47.7°F8.7°C 41.8°F5.4°C 80% 3.5 mph SW5.6 kmh SW 6.0 mph9.7 kmh 29.74 in1007.1 mb 0.01 in0.3 mm 0.06 in1.5 mm 0.02 in0.5 mm
05:00 PM 47.5°F8.6°C 41.6°F5.3°C 80% 3.5 mph S5.6 kmh S 5.4 mph8.7 kmh 29.73 in1006.8 mb 0.01 in0.3 mm 0.00 in0.0 mm 0.02 in0.5 mm
05:20 PM 47.1°F8.4°C 41.3°F5.2°C 80% 3.0 mph S4.8 kmh S 4.5 mph7.2 kmh 29.75 in1007.5 mb 0.01 in0.3 mm 0.00 in0.0 mm 0.02 in0.5 mm
05:30 PM 46.9°F8.3°C 41.1°F5.1°C 80% 2.5 mph S4.0 kmh S 4.5 mph7.2 kmh 29.75 in1007.5 mb 0.01 in0.3 mm 0.00 in0.0 mm 0.02 in0.5 mm
05:40 PM 46.8°F8.2°C 40.9°F4.9°C 80% 3.6 mph SSW5.8 kmh SSW 6.0 mph9.7 kmh 29.75 in1007.5 mb 0.01 in0.3 mm 0.00 in0.0 mm 0.02 in0.5 mm
05:50 PM 46.6°F8.1°C 40.7°F4.8°C 80% 3.9 mph SW6.3 kmh SW 5.4 mph8.7 kmh 29.75 in1007.5 mb 0.00 in0.0 mm 0.00 in0.0 mm 0.02 in0.5 mm
06:00 PM 46.4°F8.0°C 40.9°F4.9°C 81% 3.3 mph S5.3 kmh S 5.4 mph8.7 kmh 29.75 in1007.5 mb 0.00 in0.0 mm 0.00 in0.0 mm 0.02 in0.5 mm
06:10 PM 46.4°F8.0°C 40.9°F4.9°C 81% 2.1 mph SW3.4 kmh SW 3.1 mph5.0 kmh 29.75 in1007.5 mb 0.00 in0.0 mm 0.00 in0.0 mm 0.02 in0.5 mm
06:20 PM 46.4°F8.0°C 40.9°F4.9°C 81% 1.7 mph S2.7 kmh S 4.5 mph7.2 kmh 29.75 in1007.5 mb 0.00 in0.0 mm 0.00 in0.0 mm 0.02 in0.5 mm
06:50 PM 46.2°F7.9°C 40.7°F4.8°C 81% 0.1 mph E0.2 kmh E 1.6 mph2.6 kmh 29.75 in1007.5 mb 0.00 in0.0 mm 0.00 in0.0 mm 0.02 in0.5 mm
07:00 PM 46.0°F7.8°C 40.5°F4.7°C 81% 2.7 mph SSW4.3 kmh SSW 7.6 mph12.2 kmh 29.75 in1007.5 mb 0.00 in0.0 mm 0.00 in0.0 mm 0.02 in0.5 mm
07:10 PM 46.0°F7.8°C 40.5°F4.7°C 81% 2.4 mph S3.9 kmh S 5.4 mph8.7 kmh 29.75 in1007.5 mb 0.00 in0.0 mm 0.00 in0.0 mm 0.02 in0.5 mm
07:20 PM 46.0°F7.8°C 40.5°F4.7°C 81% 0.3 mph S0.5 kmh S 1.6 mph2.6 kmh 29.75 in1007.5 mb 0.00 in0.0 mm 0.00 in0.0 mm 0.02 in0.5 mm
07:30 PM 45.9°F7.7°C 40.4°F4.7°C 81% 2.3 mph S3.7 kmh S 6.0 mph9.7 kmh 29.75 in1007.5 mb 0.00 in0.0 mm 0.00 in0.0 mm 0.02 in0.5 mm
07:40 PM 45.9°F7.7°C 40.4°F4.7°C 81% 2.7 mph SW4.3 kmh SW 7.6 mph12.2 kmh 29.74 in1007.1 mb 0.00 in0.0 mm 0.00 in0.0 mm 0.02 in0.5 mm
07:50 PM 45.7°F7.6°C 40.2°F4.6°C 81% 1.1 mph SSW1.8 kmh SSW 4.5 mph7.2 kmh 29.75 in1007.5 mb 0.00 in0.0 mm 0.00 in0.0 mm 0.02 in0.5 mm
08:00 PM 45.7°F7.6°C 40.2°F4.6°C 81% 3.4 mph S5.5 kmh S 4.5 mph7.2 kmh 29.75 in1007.5 mb 0.00 in0.0 mm 0.00 in0.0 mm 0.02 in0.5 mm
08:10 PM 45.7°F7.6°C 40.2°F4.6°C 81% 3.1 mph SW5.0 kmh SW 6.0 mph9.7 kmh 29.75 in1007.5 mb 0.00 in0.0 mm 0.00 in0.0 mm 0.02 in0.5 mm
08:20 PM 45.7°F7.6°C 40.2°F4.6°C 81% 1.8 mph SW2.9 kmh SW 3.8 mph6.1 kmh 29.75 in1007.5 mb 0.00 in0.0 mm 0.00 in0.0 mm 0.02 in0.5 mm
08:30 PM 45.7°F7.6°C 40.2°F4.6°C 81% 2.7 mph SW4.3 kmh SW 4.5 mph7.2 kmh 29.75 in1007.5 mb 0.00 in0.0 mm 0.00 in0.0 mm 0.02 in0.5 mm
08:40 PM 45.7°F7.6°C 40.2°F4.6°C 81% 1.3 mph S2.1 kmh S 3.8 mph6.1 kmh 29.74 in1007.1 mb 0.00 in0.0 mm 0.00 in0.0 mm 0.02 in0.5 mm
08:50 PM 45.5°F7.5°C 40.0°F4.4°C 81% 3.7 mph SSW6.0 kmh SSW 4.5 mph7.2 kmh 29.74 in1007.1 mb 0.00 in0.0 mm 0.00 in0.0 mm 0.02 in0.5 mm
09:00 PM 45.5°F7.5°C 40.0°F4.4°C 81% 3.7 mph SW6.0 kmh SW 4.5 mph7.2 kmh 29.75 in1007.5 mb 0.00 in0.0 mm 0.00 in0.0 mm 0.02 in0.5 mm
09:10 PM 45.5°F7.5°C 40.3°F4.6°C 82% 3.5 mph SSW5.6 kmh SSW 4.5 mph7.2 kmh 29.75 in1007.5 mb 0.00 in0.0 mm 0.00 in0.0 mm 0.02 in0.5 mm
09:20 PM 45.5°F7.5°C 40.3°F4.6°C 82% 3.8 mph S6.1 kmh S 4.5 mph7.2 kmh 29.75 in1007.5 mb 0.00 in0.0 mm 0.00 in0.0 mm 0.02 in0.5 mm
09:30 PM 45.5°F7.5°C 40.3°F4.6°C 82% 2.6 mph SSW4.2 kmh SSW 4.5 mph7.2 kmh 29.74 in1007.1 mb 0.00 in0.0 mm 0.00 in0.0 mm 0.02 in0.5 mm
09:40 PM 45.5°F7.5°C 40.3°F4.6°C 82% 1.6 mph SW2.6 kmh SW 3.8 mph6.1 kmh 29.75 in1007.5 mb 0.00 in0.0 mm 0.00 in0.0 mm 0.02 in0.5 mm
09:50 PM 45.7°F7.6°C 40.5°F4.7°C 82% 3.5 mph SSW5.6 kmh SSW 5.4 mph8.7 kmh 29.74 in1007.1 mb 0.00 in0.0 mm 0.00 in0.0 mm 0.02 in0.5 mm
10:00 PM 45.7°F7.6°C 40.5°F4.7°C 82% 2.2 mph SSW3.5 kmh SSW 4.5 mph7.2 kmh 29.74 in1007.1 mb 0.00 in0.0 mm 0.00 in0.0 mm 0.02 in0.5 mm
10:10 PM 45.7°F7.6°C 40.5°F4.7°C 82% Calm Calm -- 29.74 in1007.1 mb 0.00 in0.0 mm 0.00 in0.0 mm 0.02 in0.5 mm
10:20 PM 45.7°F7.6°C 40.5°F4.7°C 82% 1.1 mph S1.8 kmh S 3.1 mph5.0 kmh 29.74 in1007.1 mb 0.00 in0.0 mm 0.00 in0.0 mm 0.02 in0.5 mm
10:30 PM 45.7°F7.6°C 40.5°F4.7°C 82% Calm Calm -- 29.74 in1007.1 mb 0.00 in0.0 mm 0.00 in0.0 mm 0.02 in0.5 mm
10:40 PM 45.7°F7.6°C 40.5°F4.7°C 82% Calm Calm -- 29.74 in1007.1 mb 0.00 in0.0 mm 0.00 in0.0 mm 0.02 in0.5 mm
10:50 PM 45.7°F7.6°C 40.5°F4.7°C 82% Calm Calm -- 29.74 in1007.1 mb 0.00 in0.0 mm 0.00 in0.0 mm 0.02 in0.5 mm
11:00 PM 45.7°F7.6°C 40.5°F4.7°C 82% Calm Calm -- 29.74 in1007.1 mb 0.00 in0.0 mm 0.00 in0.0 mm 0.02 in0.5 mm
11:10 PM 45.7°F7.6°C 40.5°F4.7°C 82% Calm Calm -- 29.74 in1007.1 mb 0.00 in0.0 mm 0.00 in0.0 mm 0.02 in0.5 mm
11:20 PM 45.5°F7.5°C 40.3°F4.6°C 82% Calm Calm -- 29.74 in1007.1 mb 0.00 in0.0 mm 0.00 in0.0 mm 0.02 in0.5 mm
11:30 PM 45.5°F7.5°C 40.3°F4.6°C 82% Calm Calm -- 29.73 in1006.8 mb 0.00 in0.0 mm 0.00 in0.0 mm 0.02 in0.5 mm
11:40 PM 45.5°F7.5°C 40.3°F4.6°C 82% Calm Calm -- 29.74 in1007.1 mb 0.00 in0.0 mm 0.00 in0.0 mm 0.02 in0.5 mm
11:50 PM 45.7°F7.6°C 40.5°F4.7°C 82% Calm Calm -- 29.73 in1006.8 mb 0.00 in0.0 mm 0.00 in0.0 mm 0.02 in0.5 mm